createdAt,value
2018-05-02T00:01:08.046Z,6.23
2018-05-02T00:11:09.359Z,3.10
2018-05-02T00:21:10.673Z,6.73
2018-05-02T00:31:11.989Z,4.20
2018-05-02T00:41:13.346Z,3.70
2018-05-02T00:51:15.451Z,7.83
2018-05-02T01:01:16.769Z,3.83
2018-05-02T01:11:18.094Z,5.80
2018-05-02T01:21:19.415Z,3.20
2018-05-02T01:31:20.739Z,4.97
2018-05-02T01:41:22.871Z,5.37
2018-05-02T01:51:24.223Z,4.60
2018-05-02T02:01:25.579Z,4.70
2018-05-02T02:11:26.945Z,4.13
2018-05-02T02:21:28.357Z,6.90
2018-05-02T02:31:29.749Z,4.87
2018-05-02T02:41:31.149Z,2.73
2018-05-02T02:51:32.519Z,8.30
2018-05-02T03:01:33.892Z,7.80
2018-05-02T03:11:35.266Z,4.33
2018-05-02T03:21:36.771Z,7.10
2018-05-02T03:31:38.148Z,4.30
2018-05-02T03:41:39.510Z,8.60
2018-05-02T03:51:41.646Z,8.00
2018-05-02T04:01:42.965Z,6.60
2018-05-02T04:11:44.347Z,5.60
2018-05-02T04:21:45.897Z,11.60
2018-05-02T04:31:47.308Z,5.83
2018-05-02T04:41:48.625Z,6.30
2018-05-02T04:51:50.750Z,5.90
2018-05-02T05:01:52.160Z,3.70
2018-05-02T05:11:53.549Z,7.87
2018-05-02T05:21:55.681Z,7.80
2018-05-02T05:31:57.006Z,8.83
2018-05-02T05:41:58.368Z,6.77
2018-05-02T05:51:59.737Z,7.63
2018-05-02T06:02:01.097Z,7.27
2018-05-02T06:12:02.461Z,6.63
2018-05-02T06:22:03.820Z,6.90
2018-05-02T06:32:05.202Z,9.67
2018-05-02T06:42:06.565Z,7.10
2018-05-02T06:52:07.952Z,10.70
2018-05-02T07:02:09.298Z,8.40
2018-05-02T07:12:10.647Z,10.93
2018-05-02T07:22:11.997Z,6.13
2018-05-02T07:32:13.350Z,7.70
2018-05-02T07:42:14.905Z,4.77
2018-05-02T07:52:16.225Z,9.83
2018-05-02T08:02:18.345Z,5.40
2018-05-02T08:12:20.465Z,6.05
2018-05-02T08:22:21.841Z,6.32
2018-05-02T08:32:23.957Z,6.40
2018-05-02T08:42:26.076Z,4.22
2018-05-02T08:52:28.207Z,4.60
2018-05-02T09:02:29.570Z,5.07
2018-05-02T09:12:30.918Z,5.25
2018-05-02T09:22:32.300Z,7.55
2018-05-02T09:32:33.630Z,7.62
2018-05-02T09:42:34.974Z,9.88
2018-05-02T09:52:37.091Z,5.90
2018-05-02T10:02:39.192Z,5.95
2018-05-02T10:12:40.527Z,7.80
2018-05-02T10:22:41.842Z,6.93
2018-05-02T10:32:43.161Z,7.60
2018-05-02T10:42:44.485Z,6.82
2018-05-02T10:52:46.576Z,6.93
2018-05-02T11:02:47.902Z,8.63
2018-05-02T11:12:50.026Z,6.03
2018-05-02T11:22:52.156Z,8.80
2018-05-02T11:32:53.515Z,11.57
2018-05-02T11:42:54.874Z,9.53
2018-05-02T11:52:56.243Z,10.87
2018-05-02T12:02:57.609Z,8.67
2018-05-02T12:12:58.978Z,12.33
2018-05-02T12:33:08.163Z,8.00
2018-05-02T12:43:09.503Z,15.57
2018-05-02T12:53:10.852Z,12.80
2018-05-02T13:03:13.037Z,8.50
2018-05-02T13:13:14.368Z,15.27
2018-05-02T13:23:15.725Z,12.07
2018-05-02T13:33:17.130Z,14.00
2018-05-02T13:43:19.166Z,13.90
2018-05-02T14:13:37.821Z,13.60
2018-05-02T14:23:39.194Z,13.87
2018-05-02T14:33:40.603Z,11.37
2018-05-02T14:43:41.954Z,12.13
2018-05-02T14:53:44.102Z,15.53
2018-05-02T15:13:52.125Z,13.87
2018-05-02T15:23:53.590Z,12.73
2018-05-02T15:33:54.939Z,12.73
2018-05-02T15:44:01.006Z,15.40
2018-05-02T15:54:02.393Z,13.03
2018-05-02T16:04:03.759Z,17.33
2018-05-02T16:14:05.104Z,12.73
2018-05-02T16:34:13.492Z,15.37
2018-05-02T16:44:14.879Z,12.17
2018-05-02T16:54:20.264Z,13.63
2018-05-02T17:04:22.458Z,12.03
2018-05-02T17:14:23.816Z,14.73
2018-05-02T17:24:25.135Z,17.43
2018-05-02T17:34:26.461Z,17.67
2018-05-02T17:44:27.809Z,14.00
2018-05-02T17:54:29.245Z,14.43
2018-05-02T18:04:30.597Z,14.67
2018-05-02T18:14:31.930Z,14.57
2018-05-02T18:24:33.742Z,13.63
2018-05-02T18:34:35.114Z,13.63
2018-05-02T18:44:36.533Z,13.73
2018-05-02T18:54:37.893Z,12.93
2018-05-02T19:04:39.280Z,13.87
2018-05-02T19:14:40.645Z,14.50
2018-05-02T19:24:42.073Z,19.20
2018-05-02T19:34:43.666Z,13.57
2018-05-02T19:44:45.814Z,15.57
2018-05-02T19:54:47.132Z,17.33
2018-05-02T20:04:48.590Z,13.27
2018-05-02T20:14:49.963Z,14.40
2018-05-02T20:24:51.342Z,15.50
2018-05-02T20:34:52.681Z,17.37
2018-05-02T20:44:54.112Z,15.97
2018-05-02T20:54:55.574Z,15.87
2018-05-02T21:04:56.981Z,19.90
2018-05-02T21:14:58.345Z,26.33
2018-05-02T21:24:59.839Z,18.83
2018-05-02T21:35:01.194Z,17.07
2018-05-02T21:45:02.546Z,12.53
2018-05-02T21:55:03.986Z,21.97
2018-05-02T22:05:05.358Z,12.10
2018-05-02T22:15:06.856Z,13.07
2018-05-02T22:25:08.973Z,14.53
2018-05-02T22:35:11.249Z,20.37
2018-05-02T22:45:12.613Z,11.00
2018-05-02T22:55:14.056Z,13.17
2018-05-02T23:05:15.467Z,10.70
2018-05-02T23:15:16.830Z,11.50
2018-05-02T23:25:18.336Z,10.57
2018-05-02T23:35:19.859Z,12.77
2018-05-02T23:45:21.200Z,12.07
2018-05-02T23:55:22.583Z,11.80
